createdAt,value
2018-09-13T00:00:29.173Z,0.00
2018-09-13T00:01:04.477Z,0.00
2018-09-13T00:01:39.771Z,0.00
2018-09-13T00:02:15.198Z,0.00
2018-09-13T00:02:50.398Z,0.00
2018-09-13T00:03:25.686Z,0.00
2018-09-13T00:04:01.227Z,0.00
2018-09-13T00:04:36.888Z,0.00
2018-09-13T00:05:12.277Z,0.00
2018-09-13T00:05:47.747Z,0.00
2018-09-13T00:06:22.948Z,0.00
2018-09-13T00:06:58.411Z,0.00
2018-09-13T00:07:33.603Z,0.00
2018-09-13T00:08:09.141Z,0.00
2018-09-13T00:08:44.857Z,0.00
2018-09-13T00:09:20.381Z,0.00
2018-09-13T00:09:55.760Z,0.00
2018-09-13T00:10:31.066Z,0.00
2018-09-13T00:11:06.273Z,0.00
2018-09-13T00:11:41.907Z,0.00
2018-09-13T00:12:18.647Z,0.00
2018-09-13T00:12:54.061Z,0.00
2018-09-13T00:13:29.450Z,0.00
2018-09-13T00:14:04.983Z,0.00
2018-09-13T00:14:40.411Z,0.00
2018-09-13T00:15:16.099Z,0.00
2018-09-13T00:15:51.411Z,0.00
2018-09-13T00:16:26.937Z,0.00
2018-09-13T00:17:02.359Z,0.00
2018-09-13T00:17:37.809Z,0.00
2018-09-13T00:18:13.387Z,0.00
2018-09-13T00:18:48.840Z,0.00
2018-09-13T00:19:24.694Z,0.00
2018-09-13T00:19:59.929Z,0.00
2018-09-13T00:20:35.441Z,0.00
2018-09-13T00:21:11.188Z,0.00
2018-09-13T00:21:46.693Z,0.00
2018-09-13T00:22:21.818Z,0.00
2018-09-13T00:22:57.226Z,0.00
2018-09-13T00:23:32.527Z,0.00
2018-09-13T00:24:07.777Z,0.00
2018-09-13T00:24:43.110Z,0.00
2018-09-13T00:25:18.624Z,0.00
2018-09-13T00:25:54.069Z,0.00
2018-09-13T00:26:29.388Z,0.00
2018-09-13T00:27:04.796Z,0.00
2018-09-13T00:27:40.021Z,0.00
2018-09-13T00:28:15.268Z,0.00
2018-09-13T00:28:50.838Z,0.00
2018-09-13T00:29:26.254Z,0.00
2018-09-13T00:30:01.474Z,0.00
2018-09-13T00:30:36.624Z,0.00
2018-09-13T00:31:12.082Z,0.00
2018-09-13T00:31:47.532Z,0.00
2018-09-13T00:32:22.560Z,0.00
2018-09-13T00:32:58.236Z,0.00
2018-09-13T00:33:33.365Z,0.00
2018-09-13T00:34:08.803Z,0.00
2018-09-13T00:34:44.450Z,0.00
2018-09-13T00:35:19.964Z,0.00
2018-09-13T00:35:55.597Z,0.00
2018-09-13T00:36:31.135Z,0.00
2018-09-13T00:37:06.368Z,0.00
2018-09-13T00:37:41.654Z,0.00
2018-09-13T00:38:16.986Z,0.00
2018-09-13T00:38:52.343Z,0.00
2018-09-13T00:39:27.670Z,0.00
2018-09-13T00:40:03.090Z,0.00
2018-09-13T00:40:38.414Z,0.00
2018-09-13T00:41:13.753Z,0.00
2018-09-13T00:41:49.126Z,0.00
2018-09-13T00:42:24.556Z,0.00
2018-09-13T00:42:59.872Z,0.00
2018-09-13T00:43:35.126Z,0.00
2018-09-13T00:44:10.444Z,0.00
2018-09-13T00:44:45.920Z,0.00
2018-09-13T00:45:21.510Z,0.00
2018-09-13T00:45:56.992Z,0.00
2018-09-13T00:46:32.574Z,0.00
2018-09-13T00:47:07.953Z,0.00
2018-09-13T00:47:43.681Z,0.00
2018-09-13T00:48:19.114Z,0.00
2018-09-13T00:48:54.458Z,0.00
2018-09-13T00:49:29.584Z,0.00
2018-09-13T00:50:04.960Z,0.00
2018-09-13T00:50:40.361Z,0.00
2018-09-13T00:51:15.755Z,0.00
2018-09-13T00:51:51.185Z,0.00
2018-09-13T00:52:26.611Z,0.00
2018-09-13T00:53:02.263Z,0.00
2018-09-13T00:53:37.414Z,0.00
2018-09-13T00:54:13.301Z,0.00
2018-09-13T00:54:48.706Z,0.00
2018-09-13T00:55:24.261Z,0.00
2018-09-13T00:55:59.537Z,0.00
2018-09-13T00:56:35.319Z,0.00
2018-09-13T00:57:10.599Z,0.00
2018-09-13T00:57:46.048Z,0.00
2018-09-13T00:58:21.477Z,0.00
2018-09-13T00:58:56.855Z,0.00
2018-09-13T00:59:32.143Z,0.00
2018-09-13T01:00:07.784Z,0.00
2018-09-13T01:00:43.138Z,0.00
2018-09-13T01:01:18.657Z,0.00
2018-09-13T01:01:53.878Z,0.00
2018-09-13T01:02:29.138Z,0.00
2018-09-13T01:03:04.282Z,0.00
2018-09-13T01:03:39.787Z,0.00
2018-09-13T01:04:15.145Z,0.00
2018-09-13T01:04:50.597Z,0.00
2018-09-13T01:05:25.702Z,0.00
2018-09-13T01:06:01.248Z,0.00
2018-09-13T01:06:36.839Z,0.00
2018-09-13T01:07:12.218Z,0.00
2018-09-13T01:07:47.613Z,0.00
2018-09-13T01:08:23.111Z,0.00
2018-09-13T01:08:58.349Z,0.00
2018-09-13T01:09:33.767Z,0.00
2018-09-13T01:10:09.332Z,0.00
2018-09-13T01:10:44.746Z,0.00
2018-09-13T01:11:20.532Z,0.00
2018-09-13T01:11:55.979Z,0.00
2018-09-13T01:12:31.247Z,0.00
2018-09-13T01:13:06.450Z,0.00
2018-09-13T01:13:42.079Z,0.00
2018-09-13T01:14:17.533Z,0.00
2018-09-13T01:14:52.964Z,0.00
2018-09-13T01:15:28.642Z,0.00
2018-09-13T01:16:04.246Z,0.00
2018-09-13T01:16:39.700Z,0.00
2018-09-13T01:17:14.951Z,0.00
2018-09-13T01:17:50.306Z,0.00
2018-09-13T01:18:25.719Z,0.00
2018-09-13T01:19:01.302Z,0.00
2018-09-13T01:19:36.623Z,0.00
2018-09-13T01:20:11.874Z,0.00
2018-09-13T01:20:47.645Z,0.00
2018-09-13T01:21:22.969Z,0.00
2018-09-13T01:21:58.436Z,0.00
2018-09-13T01:22:33.839Z,0.00
2018-09-13T01:23:09.380Z,0.00
2018-09-13T01:23:44.679Z,0.00
2018-09-13T01:24:20.161Z,0.00
2018-09-13T01:24:55.774Z,0.00
2018-09-13T01:25:31.190Z,0.00
2018-09-13T01:26:06.427Z,0.00
2018-09-13T01:26:41.742Z,0.00
2018-09-13T01:27:17.288Z,0.00
2018-09-13T01:27:52.566Z,0.00
2018-09-13T01:28:27.904Z,0.00
2018-09-13T01:29:03.231Z,0.00
2018-09-13T01:29:38.284Z,0.00
2018-09-13T01:30:13.639Z,0.00
2018-09-13T01:30:49.159Z,0.00
2018-09-13T01:31:24.546Z,0.00
2018-09-13T01:32:00.332Z,0.00
2018-09-13T01:32:35.549Z,0.00
2018-09-13T01:33:11.050Z,0.00
2018-09-13T01:33:46.628Z,0.00
2018-09-13T01:34:22.277Z,0.00
2018-09-13T01:34:57.487Z,0.00
2018-09-13T01:35:32.947Z,0.00
2018-09-13T01:36:08.488Z,0.00
2018-09-13T01:36:43.845Z,0.00
2018-09-13T01:37:19.052Z,0.00
2018-09-13T01:37:54.451Z,0.00
2018-09-13T01:38:29.728Z,0.00
2018-09-13T01:39:05.310Z,0.00
2018-09-13T01:39:40.631Z,0.00
2018-09-13T01:40:16.119Z,0.00
2018-09-13T01:40:51.467Z,0.00
2018-09-13T01:41:27.125Z,0.00
2018-09-13T01:42:02.758Z,0.00
2018-09-13T01:42:38.202Z,0.00
2018-09-13T01:43:13.668Z,0.00
2018-09-13T01:43:48.841Z,0.00
2018-09-13T01:44:24.216Z,0.00
2018-09-13T01:44:59.445Z,0.00
2018-09-13T01:45:35.015Z,0.00
2018-09-13T01:46:10.325Z,0.00
2018-09-13T01:46:45.825Z,0.00
2018-09-13T01:47:20.954Z,0.00
2018-09-13T01:47:56.567Z,0.00
2018-09-13T01:48:31.871Z,0.00
2018-09-13T01:49:07.229Z,0.00
2018-09-13T01:49:42.575Z,0.00
2018-09-13T01:50:18.028Z,0.00
2018-09-13T01:50:53.546Z,0.00
2018-09-13T01:51:28.973Z,0.00
2018-09-13T01:52:04.334Z,0.00
2018-09-13T01:52:39.729Z,0.00
2018-09-13T01:53:14.888Z,0.00
2018-09-13T01:53:50.369Z,0.00
2018-09-13T01:54:25.826Z,0.00
2018-09-13T01:55:01.342Z,0.00
2018-09-13T01:55:36.821Z,0.00
2018-09-13T01:56:12.198Z,0.00
2018-09-13T01:56:47.436Z,0.00
2018-09-13T01:57:22.923Z,0.00
2018-09-13T01:57:58.474Z,0.00
2018-09-13T01:58:33.861Z,0.00
2018-09-13T01:59:09.379Z,0.00
2018-09-13T01:59:44.725Z,0.00
2018-09-13T02:00:20.409Z,0.00
2018-09-13T02:00:55.730Z,0.00
2018-09-13T02:01:30.998Z,0.00
2018-09-13T02:02:06.151Z,0.00
2018-09-13T02:02:41.349Z,0.00
2018-09-13T02:03:17.121Z,0.00
2018-09-13T02:03:52.490Z,0.00
2018-09-13T02:04:27.680Z,0.00
2018-09-13T02:05:02.946Z,0.00
2018-09-13T02:05:38.264Z,0.00
2018-09-13T02:06:13.567Z,0.00
2018-09-13T02:06:48.893Z,0.00
2018-09-13T02:07:24.381Z,0.00
2018-09-13T02:07:59.645Z,0.00
2018-09-13T02:08:34.939Z,0.00
2018-09-13T02:09:10.380Z,0.00
2018-09-13T02:09:45.805Z,0.00
2018-09-13T02:10:21.509Z,0.00
2018-09-13T02:10:56.720Z,0.00
2018-09-13T02:11:32.090Z,0.00
2018-09-13T02:12:07.534Z,0.00
2018-09-13T02:12:42.764Z,0.00
2018-09-13T02:13:18.205Z,0.00
2018-09-13T02:13:53.733Z,0.00
2018-09-13T02:14:28.815Z,0.00
2018-09-13T02:15:04.273Z,0.00
2018-09-13T02:15:39.705Z,0.00
2018-09-13T02:16:15.424Z,0.00
2018-09-13T02:16:51.132Z,0.00
2018-09-13T02:17:26.347Z,0.00
2018-09-13T02:18:01.774Z,0.00
2018-09-13T02:18:37.439Z,0.00
2018-09-13T02:19:12.860Z,0.00
2018-09-13T02:19:48.237Z,0.00
2018-09-13T02:20:23.524Z,0.00
2018-09-13T02:20:58.840Z,0.00
2018-09-13T02:21:34.025Z,0.00
2018-09-13T02:22:09.268Z,0.00
2018-09-13T02:22:45.054Z,0.00
2018-09-13T02:23:20.393Z,0.00
2018-09-13T02:23:55.517Z,0.00
2018-09-13T02:24:31.002Z,0.00
2018-09-13T02:25:06.407Z,0.00
2018-09-13T02:25:41.889Z,0.00
2018-09-13T02:26:17.350Z,0.00
2018-09-13T02:26:52.727Z,0.00
2018-09-13T02:27:27.793Z,0.00
2018-09-13T02:28:03.162Z,0.00
2018-09-13T02:28:38.680Z,0.00
2018-09-13T02:29:13.989Z,0.00
2018-09-13T02:29:49.591Z,0.00
2018-09-13T02:30:25.069Z,0.00
2018-09-13T02:31:00.386Z,0.00
2018-09-13T02:31:35.845Z,0.00
2018-09-13T02:32:11.178Z,0.00
2018-09-13T02:32:46.335Z,0.00
2018-09-13T02:33:21.477Z,0.00
2018-09-13T02:33:56.612Z,0.00
2018-09-13T02:34:32.157Z,0.00
2018-09-13T02:35:07.595Z,0.00
2018-09-13T02:35:42.853Z,0.00
2018-09-13T02:36:18.275Z,0.00
2018-09-13T02:36:53.414Z,0.00
2018-09-13T02:37:29.218Z,0.00
2018-09-13T02:38:04.716Z,0.00
2018-09-13T02:38:40.298Z,0.00
2018-09-13T02:39:15.792Z,0.00
2018-09-13T02:39:51.150Z,0.00
2018-09-13T02:40:26.686Z,0.00
2018-09-13T02:41:02.206Z,0.00
2018-09-13T02:41:37.667Z,0.00
2018-09-13T02:42:13.115Z,0.00
2018-09-13T02:42:48.667Z,0.00
2018-09-13T02:43:24.257Z,0.00
2018-09-13T02:43:59.673Z,0.00
2018-09-13T02:44:35.084Z,0.00
2018-09-13T02:45:10.586Z,0.00
2018-09-13T02:45:46.060Z,0.00
2018-09-13T02:46:21.397Z,0.00
2018-09-13T02:46:56.887Z,0.00
2018-09-13T02:47:32.394Z,0.00
2018-09-13T02:48:07.715Z,0.00
2018-09-13T02:48:43.197Z,0.00
2018-09-13T02:49:18.559Z,0.00
2018-09-13T02:49:54.060Z,0.00
2018-09-13T02:50:29.155Z,0.00
2018-09-13T02:51:04.616Z,0.00
2018-09-13T02:51:40.012Z,0.00
2018-09-13T02:52:15.755Z,0.00
2018-09-13T02:52:51.439Z,0.00
2018-09-13T02:53:26.975Z,0.00
2018-09-13T02:54:02.119Z,0.00
2018-09-13T02:54:37.262Z,0.00
2018-09-13T02:55:12.678Z,0.00
2018-09-13T02:55:47.783Z,0.00
2018-09-13T02:56:23.583Z,0.00
2018-09-13T02:56:59.498Z,0.00
2018-09-13T02:57:34.657Z,0.00
2018-09-13T02:58:10.015Z,0.00
2018-09-13T02:58:45.431Z,0.00
2018-09-13T02:59:20.654Z,0.00
2018-09-13T02:59:56.054Z,0.00
2018-09-13T03:00:31.614Z,0.00
2018-09-13T03:01:06.928Z,0.00
2018-09-13T03:01:42.385Z,0.00
2018-09-13T03:02:17.631Z,0.00
2018-09-13T03:02:52.952Z,0.00
2018-09-13T03:03:28.552Z,0.00
2018-09-13T03:04:03.567Z,0.00
2018-09-13T03:04:38.992Z,0.00
2018-09-13T03:05:14.411Z,0.00
2018-09-13T03:05:49.826Z,0.00
2018-09-13T03:06:25.124Z,0.00
2018-09-13T03:07:00.576Z,0.00
2018-09-13T03:07:35.913Z,0.00
2018-09-13T03:08:11.262Z,0.00
2018-09-13T03:08:46.591Z,0.00
2018-09-13T03:09:21.988Z,0.00
2018-09-13T03:09:57.754Z,0.00
2018-09-13T03:10:33.089Z,0.00
2018-09-13T03:11:08.321Z,0.00
2018-09-13T03:11:43.541Z,0.00
2018-09-13T03:12:18.730Z,0.00
2018-09-13T03:12:54.105Z,0.00
2018-09-13T03:13:29.402Z,0.00
2018-09-13T03:14:04.724Z,0.00
2018-09-13T03:14:39.964Z,0.00
2018-09-13T03:15:15.243Z,0.00
2018-09-13T03:15:50.644Z,0.00
2018-09-13T03:16:26.084Z,0.00
2018-09-13T03:17:01.541Z,0.00
2018-09-13T03:17:36.934Z,0.00
2018-09-13T03:18:12.233Z,0.00
2018-09-13T03:18:47.478Z,0.00
2018-09-13T03:19:22.601Z,0.00
2018-09-13T03:19:57.957Z,0.00
2018-09-13T03:20:33.420Z,0.00
2018-09-13T03:21:08.921Z,0.00
2018-09-13T03:21:44.125Z,0.00
2018-09-13T03:22:19.785Z,0.00
2018-09-13T03:22:55.337Z,0.00
2018-09-13T03:23:30.490Z,0.00
2018-09-13T03:24:06.156Z,0.00
2018-09-13T03:24:41.347Z,0.00
2018-09-13T03:25:16.659Z,0.00
2018-09-13T03:25:52.141Z,0.00
2018-09-13T03:26:27.587Z,0.00
2018-09-13T03:27:02.960Z,0.00
2018-09-13T03:27:38.334Z,0.00
2018-09-13T03:28:13.647Z,0.00
2018-09-13T03:28:49.193Z,0.00
2018-09-13T03:29:24.417Z,0.00
2018-09-13T03:29:59.775Z,0.00
2018-09-13T03:30:35.264Z,0.00
2018-09-13T03:31:10.821Z,0.00
2018-09-13T03:31:46.236Z,0.00
2018-09-13T03:32:21.622Z,0.00
2018-09-13T03:32:56.939Z,0.00
2018-09-13T03:33:32.435Z,0.00
2018-09-13T03:34:07.931Z,0.00
2018-09-13T03:34:43.268Z,0.00
2018-09-13T03:35:18.937Z,0.00
2018-09-13T03:35:54.289Z,0.00
2018-09-13T03:36:29.767Z,0.00
2018-09-13T03:37:05.051Z,0.00
2018-09-13T03:37:40.585Z,0.00
2018-09-13T03:38:16.036Z,0.00
2018-09-13T03:38:51.465Z,0.00
2018-09-13T03:39:26.799Z,0.00
2018-09-13T03:40:02.311Z,0.00
2018-09-13T03:40:38.103Z,0.00
2018-09-13T03:41:13.560Z,0.00
2018-09-13T03:41:49.069Z,0.00
2018-09-13T03:42:24.402Z,0.00
2018-09-13T03:42:59.724Z,0.00
2018-09-13T03:43:35.066Z,0.00
2018-09-13T03:44:10.418Z,0.00
2018-09-13T03:44:45.823Z,0.00
2018-09-13T03:45:20.902Z,0.00
2018-09-13T03:45:56.256Z,0.00
2018-09-13T03:46:31.649Z,0.00
2018-09-13T03:47:06.895Z,0.00
2018-09-13T03:47:42.397Z,0.00
2018-09-13T03:48:17.606Z,0.00
2018-09-13T03:48:52.967Z,0.00
2018-09-13T03:49:28.252Z,0.00
2018-09-13T03:50:03.600Z,0.00
2018-09-13T03:50:38.919Z,0.00
2018-09-13T03:51:14.129Z,0.00
2018-09-13T03:51:49.646Z,0.00
2018-09-13T03:52:24.964Z,0.00
2018-09-13T03:53:00.197Z,0.00
2018-09-13T03:53:35.505Z,0.00
2018-09-13T03:54:10.928Z,0.00
2018-09-13T03:54:46.223Z,0.00
2018-09-13T03:55:21.303Z,0.00
2018-09-13T03:55:56.633Z,0.00
2018-09-13T03:56:32.085Z,0.00
2018-09-13T03:57:07.320Z,0.00
2018-09-13T03:57:42.859Z,0.00
2018-09-13T03:58:18.252Z,0.00
2018-09-13T03:58:53.532Z,0.00
2018-09-13T03:59:28.745Z,0.00
2018-09-13T04:00:04.213Z,0.00
2018-09-13T04:00:39.640Z,0.00
2018-09-13T04:01:14.675Z,0.00
2018-09-13T04:01:50.058Z,0.00
2018-09-13T04:02:25.620Z,0.00
2018-09-13T04:03:00.593Z,0.00
2018-09-13T04:03:35.921Z,0.00
2018-09-13T04:04:11.135Z,0.00
2018-09-13T04:04:46.784Z,0.00
2018-09-13T04:05:22.420Z,0.00
2018-09-13T04:05:57.756Z,0.00
2018-09-13T04:06:33.324Z,0.00
2018-09-13T04:07:08.929Z,0.00
2018-09-13T04:07:44.309Z,0.00
2018-09-13T04:08:19.479Z,0.00
2018-09-13T04:08:55.194Z,0.00
2018-09-13T04:09:30.541Z,0.00
2018-09-13T04:10:06.035Z,0.00
2018-09-13T04:10:41.295Z,0.00
2018-09-13T04:11:16.725Z,0.00
2018-09-13T04:11:52.079Z,0.00
2018-09-13T04:12:27.235Z,0.00
2018-09-13T04:13:02.536Z,0.00
2018-09-13T04:13:37.916Z,0.00
2018-09-13T04:14:13.467Z,0.00
2018-09-13T04:14:48.946Z,0.00
2018-09-13T04:15:24.640Z,0.00
2018-09-13T04:16:00.132Z,0.00
2018-09-13T04:16:35.394Z,0.00
2018-09-13T04:17:10.827Z,0.00
2018-09-13T04:17:46.185Z,0.00
2018-09-13T04:18:21.504Z,0.00
2018-09-13T04:18:56.907Z,0.00
2018-09-13T04:19:32.099Z,0.00
2018-09-13T04:20:07.158Z,0.00
2018-09-13T04:20:42.410Z,0.00
2018-09-13T04:21:18.228Z,0.00
2018-09-13T04:21:53.562Z,0.00
2018-09-13T04:22:29.052Z,0.00
2018-09-13T04:23:04.356Z,0.00
2018-09-13T04:23:39.725Z,0.00
2018-09-13T04:24:15.016Z,0.00
2018-09-13T04:24:50.513Z,0.00
2018-09-13T04:25:25.708Z,0.00
2018-09-13T04:26:00.827Z,0.00
2018-09-13T04:26:36.478Z,0.00
2018-09-13T04:27:11.756Z,0.00
2018-09-13T04:27:47.554Z,0.00
2018-09-13T04:28:22.743Z,0.00
2018-09-13T04:28:58.367Z,0.00
2018-09-13T04:29:33.680Z,0.00
2018-09-13T04:30:09.221Z,0.00
2018-09-13T04:30:44.428Z,0.00
2018-09-13T04:31:19.616Z,0.00
2018-09-13T04:31:54.966Z,0.00
2018-09-13T04:32:30.263Z,0.00
2018-09-13T04:33:05.784Z,0.00
2018-09-13T04:33:41.032Z,0.00
2018-09-13T04:34:16.373Z,0.00
2018-09-13T04:34:51.847Z,0.00
2018-09-13T04:35:27.349Z,0.00
2018-09-13T04:36:03.065Z,0.00
2018-09-13T04:36:38.121Z,0.00
2018-09-13T04:37:13.418Z,4.00
2018-09-13T04:37:49.026Z,4.00
2018-09-13T04:38:24.425Z,4.00
2018-09-13T04:38:59.907Z,4.00
2018-09-13T04:39:35.262Z,4.00
2018-09-13T04:40:10.644Z,0.00
2018-09-13T04:40:46.158Z,0.00
2018-09-13T04:41:21.518Z,0.00
2018-09-13T04:41:57.021Z,0.00
2018-09-13T04:42:32.853Z,4.00
2018-09-13T04:43:08.137Z,4.00
2018-09-13T04:43:43.353Z,4.00
2018-09-13T04:44:18.732Z,4.00
2018-09-13T04:44:53.985Z,4.00
2018-09-13T04:45:29.704Z,4.00
2018-09-13T04:46:04.992Z,8.00
2018-09-13T04:46:40.246Z,4.00
2018-09-13T04:47:15.556Z,4.00
2018-09-13T04:47:50.800Z,4.00
2018-09-13T04:48:25.987Z,8.00
2018-09-13T04:49:01.421Z,8.00
2018-09-13T04:49:36.746Z,8.00
2018-09-13T04:50:12.215Z,4.00
2018-09-13T04:50:47.704Z,8.00
2018-09-13T04:51:22.839Z,8.00
2018-09-13T04:51:58.287Z,8.00
2018-09-13T04:52:33.761Z,12.00
2018-09-13T04:53:09.237Z,12.00
2018-09-13T04:53:44.806Z,12.00
2018-09-13T04:54:20.443Z,8.00
2018-09-13T04:54:55.894Z,12.00
2018-09-13T04:55:31.185Z,12.00
2018-09-13T04:56:06.585Z,12.00
2018-09-13T04:56:41.823Z,16.00
2018-09-13T04:57:17.259Z,16.00
2018-09-13T04:57:52.598Z,12.00
2018-09-13T04:58:28.123Z,16.00
2018-09-13T04:59:03.824Z,16.00
2018-09-13T04:59:39.153Z,16.00
2018-09-13T05:00:14.586Z,20.00
2018-09-13T05:00:49.565Z,16.00
2018-09-13T05:01:24.914Z,20.00
2018-09-13T05:02:00.338Z,20.00
2018-09-13T05:02:35.922Z,24.00
2018-09-13T05:03:11.372Z,20.00
2018-09-13T05:03:46.723Z,24.00
2018-09-13T05:04:22.015Z,24.00
2018-09-13T05:04:57.251Z,24.00
2018-09-13T05:05:32.662Z,28.00
2018-09-13T05:06:07.945Z,28.00
2018-09-13T05:06:43.441Z,28.00
2018-09-13T05:07:19.039Z,32.00
2018-09-13T05:07:54.441Z,32.00
2018-09-13T05:08:29.730Z,36.00
2018-09-13T05:09:05.132Z,36.00
2018-09-13T05:09:40.639Z,40.00
2018-09-13T05:10:15.929Z,40.00
2018-09-13T05:10:51.226Z,44.00
2018-09-13T05:11:26.725Z,44.00
2018-09-13T05:12:02.464Z,44.00
2018-09-13T05:12:37.919Z,44.00
2018-09-13T05:13:13.363Z,48.00
2018-09-13T05:13:48.809Z,48.00
2018-09-13T05:14:24.201Z,48.00
2018-09-13T05:14:59.538Z,52.00
2018-09-13T05:15:34.772Z,52.00
2018-09-13T05:16:10.268Z,52.00
2018-09-13T05:16:45.484Z,48.00
2018-09-13T05:17:20.501Z,52.00
2018-09-13T05:17:56.276Z,52.00
2018-09-13T05:18:31.610Z,56.00
2018-09-13T05:19:07.007Z,56.00
2018-09-13T05:19:42.595Z,56.00
2018-09-13T05:20:18.327Z,56.00
2018-09-13T05:20:53.765Z,60.00
2018-09-13T05:21:28.994Z,60.00
2018-09-13T05:22:04.607Z,60.00
2018-09-13T05:22:40.234Z,60.00
2018-09-13T05:23:15.391Z,60.00
2018-09-13T05:23:50.555Z,60.00
2018-09-13T05:24:26.314Z,60.00
2018-09-13T05:25:02.542Z,60.00
2018-09-13T05:25:37.975Z,60.00
2018-09-13T05:26:13.384Z,64.00
2018-09-13T05:26:48.869Z,60.00
2018-09-13T05:27:24.699Z,60.00
2018-09-13T05:27:59.846Z,64.00
2018-09-13T05:28:35.172Z,60.00
2018-09-13T05:29:10.488Z,60.00
2018-09-13T05:29:45.627Z,52.00
2018-09-13T05:30:21.077Z,56.00
2018-09-13T05:30:56.538Z,52.00
2018-09-13T05:31:31.848Z,52.00
2018-09-13T05:32:07.228Z,52.00
2018-09-13T05:32:42.920Z,52.00
2018-09-13T05:33:18.331Z,56.00
2018-09-13T05:33:53.594Z,52.00
2018-09-13T05:34:28.985Z,56.00
2018-09-13T05:35:04.361Z,56.00
2018-09-13T05:35:39.786Z,56.00
2018-09-13T05:36:15.179Z,60.00
2018-09-13T05:36:50.371Z,60.00
2018-09-13T05:37:25.782Z,64.00
2018-09-13T05:38:01.145Z,68.00
2018-09-13T05:38:36.573Z,68.00
2018-09-13T05:39:11.930Z,72.00
2018-09-13T05:39:47.261Z,76.00
2018-09-13T05:40:22.403Z,80.00
2018-09-13T05:40:57.764Z,80.00
2018-09-13T05:41:33.146Z,84.00
2018-09-13T05:42:08.269Z,88.00
2018-09-13T05:42:43.405Z,92.00
2018-09-13T05:43:18.730Z,96.00
2018-09-13T05:43:54.167Z,100.00
2018-09-13T05:44:29.464Z,104.00
2018-09-13T05:45:05.078Z,108.00
2018-09-13T05:45:40.521Z,108.00
2018-09-13T05:46:15.840Z,112.00
2018-09-13T05:46:51.351Z,116.00
2018-09-13T05:47:26.973Z,120.00
2018-09-13T05:48:02.383Z,124.00
2018-09-13T05:48:38.103Z,128.00
2018-09-13T05:49:13.479Z,128.00
2018-09-13T05:49:48.897Z,132.00
2018-09-13T05:50:24.491Z,136.00
2018-09-13T05:51:00.289Z,140.00
2018-09-13T05:51:35.715Z,140.00
2018-09-13T05:52:10.953Z,148.00
2018-09-13T05:52:46.149Z,148.00
2018-09-13T05:53:21.461Z,152.00
2018-09-13T05:53:57.164Z,164.00
2018-09-13T05:54:32.526Z,168.00
2018-09-13T05:55:07.883Z,180.00
2018-09-13T05:55:43.287Z,188.00
2018-09-13T05:56:18.739Z,196.00
2018-09-13T05:56:54.206Z,200.00
2018-09-13T05:57:29.501Z,204.00
2018-09-13T05:58:04.961Z,208.00
2018-09-13T05:58:40.355Z,212.00
2018-09-13T05:59:15.575Z,216.00
2018-09-13T05:59:50.790Z,220.00
2018-09-13T06:00:26.166Z,228.00
2018-09-13T06:01:01.349Z,240.00
2018-09-13T06:01:36.797Z,248.00
2018-09-13T06:02:12.313Z,256.00
2018-09-13T06:02:47.672Z,264.00
2018-09-13T06:03:23.050Z,284.00
2018-09-13T06:03:58.411Z,300.00
2018-09-13T06:04:33.624Z,324.00
2018-09-13T06:05:09.059Z,352.00
2018-09-13T06:05:44.385Z,376.00
2018-09-13T06:06:19.726Z,408.00
2018-09-13T06:06:55.221Z,444.00
2018-09-13T06:07:30.628Z,480.00
2018-09-13T06:08:06.022Z,516.00
2018-09-13T06:08:41.244Z,548.00
2018-09-13T06:09:16.582Z,576.00
2018-09-13T06:09:52.329Z,600.00
2018-09-13T06:10:27.668Z,628.00
2018-09-13T06:11:02.867Z,660.00
2018-09-13T06:11:38.168Z,684.00
2018-09-13T06:12:13.388Z,700.00
2018-09-13T06:12:48.618Z,708.00
2018-09-13T06:13:23.759Z,712.00
2018-09-13T06:13:59.083Z,712.00
2018-09-13T06:14:34.399Z,716.00
2018-09-13T06:15:09.713Z,720.00
2018-09-13T06:15:45.174Z,724.00
2018-09-13T06:16:20.277Z,724.00
2018-09-13T06:16:55.729Z,728.00
2018-09-13T06:17:30.937Z,740.00
2018-09-13T06:18:06.501Z,756.00
2018-09-13T06:18:41.800Z,776.00
2018-09-13T06:19:17.318Z,784.00
2018-09-13T06:19:52.586Z,792.00
2018-09-13T06:20:28.262Z,800.00
2018-09-13T06:21:03.734Z,808.00
2018-09-13T06:21:39.139Z,816.00
2018-09-13T06:22:14.790Z,820.00
2018-09-13T06:22:50.387Z,832.00
2018-09-13T06:23:25.830Z,844.00
2018-09-13T06:24:01.441Z,868.00
2018-09-13T06:24:36.665Z,888.00
2018-09-13T06:25:12.226Z,900.00
2018-09-13T06:25:47.547Z,904.00
2018-09-13T06:26:23.200Z,912.00
2018-09-13T06:26:58.422Z,928.00
2018-09-13T06:27:33.712Z,948.00
2018-09-13T06:28:09.163Z,964.00
2018-09-13T06:28:44.356Z,984.00
2018-09-13T06:29:19.629Z,1000.00
2018-09-13T06:29:55.111Z,1008.00
2018-09-13T06:30:30.397Z,1012.00
2018-09-13T06:31:05.928Z,1020.00
2018-09-13T06:31:41.570Z,1044.00
2018-09-13T06:32:16.904Z,1068.00
2018-09-13T06:32:52.196Z,1096.00
2018-09-13T06:33:27.848Z,1120.00
2018-09-13T06:34:03.560Z,1136.00
2018-09-13T06:34:38.827Z,1180.00
2018-09-13T06:35:14.240Z,1220.00
2018-09-13T06:35:49.434Z,1272.00
2018-09-13T06:36:24.712Z,1316.00
2018-09-13T06:37:00.132Z,1336.00
2018-09-13T06:37:35.589Z,1344.00
2018-09-13T06:38:11.364Z,1380.00
2018-09-13T06:38:46.804Z,1376.00
2018-09-13T06:39:22.265Z,1384.00
2018-09-13T06:39:57.522Z,1296.00
2018-09-13T06:40:32.793Z,1300.00
2018-09-13T06:41:08.021Z,1468.00
2018-09-13T06:41:43.661Z,1524.00
2018-09-13T06:42:18.960Z,1504.00
2018-09-13T06:42:54.124Z,1552.00
2018-09-13T06:43:29.459Z,1524.00
2018-09-13T06:44:04.810Z,1364.00
2018-09-13T06:44:40.441Z,1348.00
2018-09-13T06:45:15.907Z,1468.00
2018-09-13T06:45:51.223Z,1504.00
2018-09-13T06:46:26.585Z,1476.00
2018-09-13T06:47:02.262Z,1544.00
2018-09-13T06:47:37.724Z,1648.00
2018-09-13T06:48:13.240Z,1696.00
2018-09-13T06:48:48.901Z,1724.00
2018-09-13T06:49:24.213Z,1896.00
2018-09-13T06:49:59.438Z,2004.00
2018-09-13T06:50:34.859Z,1996.00
2018-09-13T06:51:10.113Z,2092.00
2018-09-13T06:51:45.404Z,1836.00
2018-09-13T06:52:21.061Z,1604.00
2018-09-13T06:52:56.216Z,1824.00
2018-09-13T06:53:31.339Z,2056.00
2018-09-13T06:54:06.632Z,2020.00
2018-09-13T06:54:42.059Z,1856.00
2018-09-13T06:55:17.400Z,1872.00
2018-09-13T06:55:52.750Z,2020.00
2018-09-13T06:56:27.995Z,2016.00
2018-09-13T06:57:03.431Z,2028.00
2018-09-13T06:57:38.656Z,2076.00
2018-09-13T06:58:14.387Z,2140.00
2018-09-13T06:58:49.580Z,2168.00
2018-09-13T06:59:25.016Z,2188.00
2018-09-13T07:00:00.346Z,2280.00
2018-09-13T07:00:35.677Z,2328.00
2018-09-13T07:01:11.393Z,2356.00
2018-09-13T07:01:46.570Z,2392.00
2018-09-13T07:02:21.864Z,2444.00
2018-09-13T07:02:57.220Z,2512.00
2018-09-13T07:03:32.698Z,2548.00
2018-09-13T07:04:07.913Z,2632.00
2018-09-13T07:04:43.473Z,2736.00
2018-09-13T07:05:18.792Z,2824.00
2018-09-13T07:05:54.216Z,2760.00
2018-09-13T07:06:29.598Z,2504.00
2018-09-13T07:07:05.006Z,2676.00
2018-09-13T07:07:40.431Z,2708.00
2018-09-13T07:08:15.669Z,2644.00
2018-09-13T07:08:51.193Z,2588.00
2018-09-13T07:09:26.607Z,2572.00
2018-09-13T07:10:02.070Z,2568.00
2018-09-13T07:10:37.521Z,2552.00
2018-09-13T07:11:13.103Z,2536.00
2018-09-13T07:11:48.491Z,2500.00
2018-09-13T07:12:23.751Z,2460.00
2018-09-13T07:12:59.269Z,2388.00
2018-09-13T07:13:34.725Z,2256.00
2018-09-13T07:14:09.926Z,2184.00
2018-09-13T07:14:45.034Z,2144.00
2018-09-13T07:15:20.575Z,2212.00
2018-09-13T07:15:56.002Z,2328.00
2018-09-13T07:16:31.419Z,2428.00
2018-09-13T07:17:06.854Z,2440.00
2018-09-13T07:17:42.379Z,2420.00
2018-09-13T07:18:17.693Z,2468.00
2018-09-13T07:18:53.661Z,2392.00
2018-09-13T07:19:29.207Z,2256.00
2018-09-13T07:20:04.494Z,1976.00
2018-09-13T07:20:39.947Z,1804.00
2018-09-13T07:21:15.306Z,1856.00
2018-09-13T07:21:50.508Z,1908.00
2018-09-13T07:22:25.905Z,1944.00
2018-09-13T07:23:01.427Z,1884.00
2018-09-13T07:23:36.907Z,1972.00
2018-09-13T07:24:12.350Z,2024.00
2018-09-13T07:24:47.640Z,1940.00
2018-09-13T07:25:23.087Z,1916.00
2018-09-13T07:25:59.022Z,1980.00
2018-09-13T07:26:34.466Z,2000.00
2018-09-13T07:27:09.957Z,1976.00
2018-09-13T07:27:45.195Z,1960.00
2018-09-13T07:28:20.645Z,2004.00
2018-09-13T07:28:55.864Z,1888.00
2018-09-13T07:29:31.221Z,1820.00
2018-09-13T07:30:06.823Z,2172.00
2018-09-13T07:30:42.192Z,2784.00
2018-09-13T07:31:17.864Z,2948.00
2018-09-13T07:31:53.397Z,3008.00
2018-09-13T07:32:28.948Z,2988.00
2018-09-13T07:33:04.300Z,3032.00
2018-09-13T07:33:39.578Z,3124.00
2018-09-13T07:34:15.018Z,3196.00
2018-09-13T07:34:50.410Z,3124.00
2018-09-13T07:35:25.971Z,2968.00
2018-09-13T07:36:01.368Z,2968.00
2018-09-13T07:36:36.654Z,2964.00
2018-09-13T07:37:12.146Z,2912.00
2018-09-13T07:37:47.460Z,2744.00
2018-09-13T07:38:22.781Z,2500.00
2018-09-13T07:38:58.349Z,2304.00
2018-09-13T07:39:33.664Z,2312.00